Terminal Aerodrome Forecast
Issued by NWS

Home | Current Version | Previous Version | Text Only | Print | Product List | Glossary On
Versions: 1 2 3 4 5 6 7 8 9 10 11 12 13 14
841
FTUS43 KILX 041724
TAFCMI
TAF
KCMI 041724Z 0418/0518 12006KT 1 1/2SM RASN BR SCT003 OVC008
      TEMPO 0420/0422 1/2SM SN FG BKN003
     FM042300 17004KT P6SM VCSH OVC003
     FM050900 26005KT P6SM BKN008
     FM051400 18005KT P6SM SCT003 BKN008=

USA.gov is the U.S. government's official web portal to all federal, state and local government web resources and services.